UCFM

Manas

Manas, Kyrgyzstan
TAF UCFM 251644Z 2518/2618 25003G08MPS 6000 BKN007 OVC030CB TEMPO 2518/2524 29007G12MPS 1000 SHRA BR BKN003 OVC015CB PROB40 TEMPO 2518/2524 TS TEMPO 2600/2606 14003MPS 2000 SHRA FEW003 OVC015CB
Issued Valid From Valid To
Apr-25 @ 16:44 UTC
(2 hours ago)
Apr-25 @ 18:00 UTC
(17 minutes ago)
Apr-26 @ 18:00 UTC
(in 24 hours)
Apr-25 @ 18:00 to Apr-26 @ 18:00
TAF UCFM 251644Z 2518/2618 25003G08MPS 6000 BKN007 OVC030CB
Wind Visibility Clouds
250° at 6 knots
 Gusting to 16 knots
6,003 meters
  • Broken at 700' AGL
  • Overcast at 3,000' AGL
Temporary Apr-25 @ 18:00 to Apr-26 @ 00:00
TEMPO 2518/2524 29007G12MPS 1000 SHRA BR BKN003 OVC015CB
Wind Visibility Clouds Conditions
290° at 14 knots
 Gusting to 23 knots
998 meters
  • Broken at 300' AGL
  • Overcast at 1,500' AGL
  • Rain
  • Mist
Temporary  (Probability 40%) Apr-25 @ 18:00 to Apr-26 @ 00:00
PROB40 TEMPO 2518/2524 TS
Conditions
  • Thunderstorm
Temporary Apr-26 @ 00:00 to Apr-26 @ 06:00
TEMPO 2600/2606 14003MPS 2000 SHRA FEW003 OVC015CB
Wind Visibility Clouds Conditions
140° at 6 knots 1,996 meters
  • Few at 300' AGL
  • Overcast at 1,500' AGL
  • Rain
TAF UCFM 251644Z 2518/2618 25003G08MPS 6000 BKN007 OVC030CB TEMPO 2518/2524 29007G12MPS 1000 SHRA BR BKN003 OVC015CB PROB40 TEMPO 2518/2524 TS TEMPO 2600/2606 14003MPS 2000 SHRA FEW003 OVC015CB
Issued Apr-25 @ 16:44 UTC
(2 hours ago)
Valid From Apr-25 @ 18:00 UTC
(17 minutes ago)
Valid To Apr-26 @ 18:00 UTC
(in 24 hours)
Apr-25 @ 18:00 - Apr-26 @ 18:00
Wind Visibility
250° at 6 knots
 Gusting to 16 knots
6,003 meters
Clouds
  • Broken at 700' AGL
  • Overcast at 3,000' AGL
Temporary Apr-25 @ 18:00 - Apr-26 @ 00:00
Wind Visibility
290° at 14 knots
 Gusting to 23 knots
998 meters
Clouds
  • Broken at 300' AGL
  • Overcast at 1,500' AGL
Conditions
  • Rain
  • Mist
Probability 40% Temporary Apr-25 @ 18:00 - Apr-26 @ 00:00
Conditions
  • Thunderstorm
Temporary Apr-26 @ 00:00 - Apr-26 @ 06:00
Wind Visibility
140° at 6 knots 1,996 meters
Clouds
  • Few at 300' AGL
  • Overcast at 1,500' AGL
Conditions
  • Rain